Terminal Aerodrome Forecast
Issued by NWS

Home | Current Version | Previous Version | Text Only | Print | Product List | Glossary On
Versions: 1 2 3 4 5 6 7 8 9 10 11 12 13 14 15 16 17 18 19 20 21 22 23 24 25 26 27
000
FTUS45 KGJT 040533
TAFDRO
TAF
KDRO 040533Z 0406/0506 04008KT P6SM SCT100 SCT150
     FM040900 VRB03KT P6SM SCT120 SCT200
     FM041200 06003KT P6SM SCT120 BKN200
     FM041900 20008KT P6SM VCTS BKN100CB
     FM050100 13007KT P6SM VCSH SCT080 BKN100=

USA.gov is the U.S. government's official web portal to all federal, state and local government web resources and services.